sensor_id;sensor_type;location;lat;lon;timestamp;temperature;humidity
35796;DHT22;21916;52.428;13.302;2023-06-19T00:00:11;18.60;99.90
35796;DHT22;21916;52.428;13.302;2023-06-19T00:02:43;18.60;99.90
35796;DHT22;21916;52.428;13.302;2023-06-19T00:05:10;18.40;99.90
35796;DHT22;21916;52.428;13.302;2023-06-19T00:07:36;18.40;99.90
35796;DHT22;21916;52.428;13.302;2023-06-19T00:10:03;18.50;99.90
35796;DHT22;21916;52.428;13.302;2023-06-19T00:12:29;18.50;99.90
35796;DHT22;21916;52.428;13.302;2023-06-19T00:14:55;18.60;99.90
35796;DHT22;21916;52.428;13.302;2023-06-19T00:17:21;18.60;99.90
35796;DHT22;21916;52.428;13.302;2023-06-19T00:19:47;18.50;99.90
35796;DHT22;21916;52.428;13.302;2023-06-19T00:22:14;18.50;99.90
35796;DHT22;21916;52.428;13.302;2023-06-19T00:24:41;18.60;99.90
35796;DHT22;21916;52.428;13.302;2023-06-19T00:27:06;18.60;99.90
35796;DHT22;21916;52.428;13.302;2023-06-19T00:29:32;18.60;99.90
35796;DHT22;21916;52.428;13.302;2023-06-19T00:31:59;18.50;99.90
35796;DHT22;21916;52.428;13.302;2023-06-19T00:34:25;18.60;99.90
35796;DHT22;21916;52.428;13.302;2023-06-19T00:36:52;18.50;99.90
35796;DHT22;21916;52.428;13.302;2023-06-19T00:39:28;18.50;99.90
35796;DHT22;21916;52.428;13.302;2023-06-19T00:41:55;18.40;99.90
35796;DHT22;21916;52.428;13.302;2023-06-19T00:44:21;18.40;99.90
35796;DHT22;21916;52.428;13.302;2023-06-19T00:46:51;18.50;99.90
35796;DHT22;21916;52.428;13.302;2023-06-19T00:49:19;18.50;99.90
35796;DHT22;21916;52.428;13.302;2023-06-19T00:51:46;18.40;99.90
35796;DHT22;21916;52.428;13.302;2023-06-19T00:54:14;18.30;99.90
35796;DHT22;21916;52.428;13.302;2023-06-19T00:56:41;18.30;99.90
35796;DHT22;21916;52.428;13.302;2023-06-19T00:59:19;18.30;99.90
35796;DHT22;21916;52.428;13.302;2023-06-19T01:01:46;18.30;99.90
35796;DHT22;21916;52.428;13.302;2023-06-19T01:04:12;18.30;99.90
35796;DHT22;21916;52.428;13.302;2023-06-19T01:06:55;18.30;99.90
35796;DHT22;21916;52.428;13.302;2023-06-19T01:09:31;18.30;99.90
35796;DHT22;21916;52.428;13.302;2023-06-19T01:12:06;18.30;99.90
35796;DHT22;21916;52.428;13.302;2023-06-19T01:14:53;18.30;99.90
35796;DHT22;21916;52.428;13.302;2023-06-19T01:17:21;18.30;99.90
35796;DHT22;21916;52.428;13.302;2023-06-19T01:19:47;18.20;99.90
35796;DHT22;21916;52.428;13.302;2023-06-19T01:22:27;18.20;99.90
35796;DHT22;21916;52.428;13.302;2023-06-19T01:24:53;18.20;99.90
35796;DHT22;21916;52.428;13.302;2023-06-19T01:27:19;18.10;99.90
35796;DHT22;21916;52.428;13.302;2023-06-19T01:29:46;18.10;99.90
35796;DHT22;21916;52.428;13.302;2023-06-19T01:32:22;18.20;99.90
35796;DHT22;21916;52.428;13.302;2023-06-19T01:34:52;18.10;99.90
35796;DHT22;21916;52.428;13.302;2023-06-19T01:37:18;18.10;99.90
35796;DHT22;21916;52.428;13.302;2023-06-19T01:39:45;18.10;99.90
35796;DHT22;21916;52.428;13.302;2023-06-19T01:42:13;18.20;99.90
35796;DHT22;21916;52.428;13.302;2023-06-19T01:44:40;18.10;99.90
35796;DHT22;21916;52.428;13.302;2023-06-19T01:47:10;18.00;99.90
35796;DHT22;21916;52.428;13.302;2023-06-19T01:49:38;18.10;99.90
35796;DHT22;21916;52.428;13.302;2023-06-19T01:52:04;18.00;99.90
35796;DHT22;21916;52.428;13.302;2023-06-19T01:54:30;17.90;99.90
35796;DHT22;21916;52.428;13.302;2023-06-19T01:56:57;17.90;99.90
35796;DHT22;21916;52.428;13.302;2023-06-19T01:59:23;18.00;99.90
35796;DHT22;21916;52.428;13.302;2023-06-19T02:04:19;18.00;99.90
35796;DHT22;21916;52.428;13.302;2023-06-19T02:06:45;18.00;99.90
35796;DHT22;21916;52.428;13.302;2023-06-19T02:09:11;18.00;99.90
35796;DHT22;21916;52.428;13.302;2023-06-19T02:11:38;18.00;99.90
35796;DHT22;21916;52.428;13.302;2023-06-19T02:14:03;18.00;99.90
35796;DHT22;21916;52.428;13.302;2023-06-19T02:16:29;17.90;99.90
35796;DHT22;21916;52.428;13.302;2023-06-19T02:18:56;17.90;99.90
35796;DHT22;21916;52.428;13.302;2023-06-19T02:21:22;17.90;99.90
35796;DHT22;21916;52.428;13.302;2023-06-19T02:23:51;17.90;99.90
35796;DHT22;21916;52.428;13.302;2023-06-19T02:26:17;17.90;99.90
35796;DHT22;21916;52.428;13.302;2023-06-19T02:28:42;17.90;99.90
35796;DHT22;21916;52.428;13.302;2023-06-19T02:31:08;17.90;99.90
35796;DHT22;21916;52.428;13.302;2023-06-19T02:33:37;17.80;99.90
35796;DHT22;21916;52.428;13.302;2023-06-19T02:36:03;17.80;99.90
35796;DHT22;21916;52.428;13.302;2023-06-19T02:38:30;17.90;99.90
35796;DHT22;21916;52.428;13.302;2023-06-19T02:40:56;17.90;99.90
35796;DHT22;21916;52.428;13.302;2023-06-19T02:43:28;17.90;99.90
35796;DHT22;21916;52.428;13.302;2023-06-19T02:45:54;17.80;99.90
35796;DHT22;21916;52.428;13.302;2023-06-19T02:48:20;17.80;99.90
35796;DHT22;21916;52.428;13.302;2023-06-19T02:51:06;17.80;99.90
35796;DHT22;21916;52.428;13.302;2023-06-19T02:53:32;17.90;99.90
35796;DHT22;21916;52.428;13.302;2023-06-19T02:55:58;17.90;99.90
35796;DHT22;21916;52.428;13.302;2023-06-19T02:58:25;17.80;99.90
35796;DHT22;21916;52.428;13.302;2023-06-19T03:00:52;17.80;99.90
35796;DHT22;21916;52.428;13.302;2023-06-19T03:03:19;17.90;99.90
35796;DHT22;21916;52.428;13.302;2023-06-19T03:05:45;17.80;99.90
35796;DHT22;21916;52.428;13.302;2023-06-19T03:08:11;17.80;99.90
35796;DHT22;21916;52.428;13.302;2023-06-19T03:10:37;17.90;99.90
35796;DHT22;21916;52.428;13.302;2023-06-19T03:13:03;17.90;99.90
35796;DHT22;21916;52.428;13.302;2023-06-19T03:15:29;17.90;99.90
35796;DHT22;21916;52.428;13.302;2023-06-19T03:17:55;17.90;99.90
35796;DHT22;21916;52.428;13.302;2023-06-19T03:20:24;18.00;99.90
35796;DHT22;21916;52.428;13.302;2023-06-19T03:22:55;18.10;99.90
35796;DHT22;21916;52.428;13.302;2023-06-19T03:25:23;18.10;99.90
35796;DHT22;21916;52.428;13.302;2023-06-19T03:27:49;18.10;99.90
35796;DHT22;21916;52.428;13.302;2023-06-19T03:30:15;18.10;99.90
35796;DHT22;21916;52.428;13.302;2023-06-19T03:32:45;18.00;99.90
35796;DHT22;21916;52.428;13.302;2023-06-19T03:35:21;18.00;99.90
35796;DHT22;21916;52.428;13.302;2023-06-19T03:37:48;18.10;99.90
35796;DHT22;21916;52.428;13.302;2023-06-19T03:40:16;18.10;99.90
35796;DHT22;21916;52.428;13.302;2023-06-19T03:42:47;18.00;99.90
35796;DHT22;21916;52.428;13.302;2023-06-19T03:45:13;18.10;99.90
35796;DHT22;21916;52.428;13.302;2023-06-19T03:47:39;18.20;99.90
35796;DHT22;21916;52.428;13.302;2023-06-19T03:50:06;18.30;99.90
35796;DHT22;21916;52.428;13.302;2023-06-19T03:52:36;18.30;99.90
35796;DHT22;21916;52.428;13.302;2023-06-19T03:55:03;18.40;99.90
35796;DHT22;21916;52.428;13.302;2023-06-19T03:57:29;18.30;99.90
35796;DHT22;21916;52.428;13.302;2023-06-19T03:59:56;18.30;99.90
35796;DHT22;21916;52.428;13.302;2023-06-19T04:02:22;18.30;99.90
35796;DHT22;21916;52.428;13.302;2023-06-19T04:04:48;18.30;99.90
35796;DHT22;21916;52.428;13.302;2023-06-19T04:07:14;18.30;99.90
35796;DHT22;21916;52.428;13.302;2023-06-19T04:09:41;18.20;99.90
35796;DHT22;21916;52.428;13.302;2023-06-19T04:12:07;18.30;99.90
35796;DHT22;21916;52.428;13.302;2023-06-19T04:14:33;18.40;99.90
35796;DHT22;21916;52.428;13.302;2023-06-19T04:16:59;18.50;99.90
35796;DHT22;21916;52.428;13.302;2023-06-19T04:19:26;18.60;99.90
35796;DHT22;21916;52.428;13.302;2023-06-19T04:21:52;18.60;99.90
35796;DHT22;21916;52.428;13.302;2023-06-19T04:24:20;18.70;99.90
35796;DHT22;21916;52.428;13.302;2023-06-19T04:26:46;18.80;99.90
35796;DHT22;21916;52.428;13.302;2023-06-19T04:29:12;18.80;99.90
35796;DHT22;21916;52.428;13.302;2023-06-19T04:31:45;18.90;99.90
35796;DHT22;21916;52.428;13.302;2023-06-19T04:34:16;19.00;99.90
35796;DHT22;21916;52.428;13.302;2023-06-19T04:36:42;19.10;99.90
35796;DHT22;21916;52.428;13.302;2023-06-19T04:39:09;19.00;99.90
35796;DHT22;21916;52.428;13.302;2023-06-19T04:41:35;19.10;99.90
35796;DHT22;21916;52.428;13.302;2023-06-19T04:44:05;19.00;99.90
35796;DHT22;21916;52.428;13.302;2023-06-19T04:46:31;19.20;99.90
35796;DHT22;21916;52.428;13.302;2023-06-19T04:48:57;19.30;99.90
35796;DHT22;21916;52.428;13.302;2023-06-19T04:51:23;19.30;99.90
35796;DHT22;21916;52.428;13.302;2023-06-19T04:53:49;19.30;99.90
35796;DHT22;21916;52.428;13.302;2023-06-19T04:56:15;19.40;99.90
35796;DHT22;21916;52.428;13.302;2023-06-19T04:58:41;19.30;99.90
35796;DHT22;21916;52.428;13.302;2023-06-19T05:01:15;19.30;99.90
35796;DHT22;21916;52.428;13.302;2023-06-19T05:03:45;19.30;99.90
35796;DHT22;21916;52.428;13.302;2023-06-19T05:06:12;19.30;99.90
35796;DHT22;21916;52.428;13.302;2023-06-19T05:08:38;19.30;99.90
35796;DHT22;21916;52.428;13.302;2023-06-19T05:11:04;19.40;99.90
35796;DHT22;21916;52.428;13.302;2023-06-19T05:13:30;19.40;99.90
35796;DHT22;21916;52.428;13.302;2023-06-19T05:15:55;19.50;99.90
35796;DHT22;21916;52.428;13.302;2023-06-19T05:18:22;19.60;99.90
35796;DHT22;21916;52.428;13.302;2023-06-19T05:20:49;19.60;99.90
35796;DHT22;21916;52.428;13.302;2023-06-19T05:23:15;19.70;99.90
35796;DHT22;21916;52.428;13.302;2023-06-19T05:25:41;19.80;99.90
35796;DHT22;21916;52.428;13.302;2023-06-19T05:28:09;19.90;99.90
35796;DHT22;21916;52.428;13.302;2023-06-19T05:30:35;20.00;99.90
35796;DHT22;21916;52.428;13.302;2023-06-19T05:33:02;20.10;99.90
35796;DHT22;21916;52.428;13.302;2023-06-19T05:35:28;20.20;99.90
35796;DHT22;21916;52.428;13.302;2023-06-19T05:37:56;20.20;99.90
35796;DHT22;21916;52.428;13.302;2023-06-19T05:40:22;20.20;99.90
35796;DHT22;21916;52.428;13.302;2023-06-19T05:42:49;20.30;99.90
35796;DHT22;21916;52.428;13.302;2023-06-19T05:45:14;20.40;99.90
35796;DHT22;21916;52.428;13.302;2023-06-19T05:47:40;20.60;99.90
35796;DHT22;21916;52.428;13.302;2023-06-19T05:50:07;20.60;99.90
35796;DHT22;21916;52.428;13.302;2023-06-19T05:52:33;20.70;99.90
35796;DHT22;21916;52.428;13.302;2023-06-19T05:54:59;20.70;99.90
35796;DHT22;21916;52.428;13.302;2023-06-19T05:57:26;20.80;99.90
35796;DHT22;21916;52.428;13.302;2023-06-19T05:59:52;20.90;99.90
35796;DHT22;21916;52.428;13.302;2023-06-19T06:02:20;21.10;99.90
35796;DHT22;21916;52.428;13.302;2023-06-19T06:04:47;21.10;99.90
35796;DHT22;21916;52.428;13.302;2023-06-19T06:07:13;21.10;99.90
35796;DHT22;21916;52.428;13.302;2023-06-19T06:09:39;21.20;99.90
35796;DHT22;21916;52.428;13.302;2023-06-19T06:12:06;21.30;99.90
35796;DHT22;21916;52.428;13.302;2023-06-19T06:14:32;21.30;99.90
35796;DHT22;21916;52.428;13.302;2023-06-19T06:16:58;21.40;99.90
35796;DHT22;21916;52.428;13.302;2023-06-19T06:19:23;21.50;99.90
35796;DHT22;21916;52.428;13.302;2023-06-19T06:21:50;21.60;99.90
35796;DHT22;21916;52.428;13.302;2023-06-19T06:24:17;21.70;99.90
35796;DHT22;21916;52.428;13.302;2023-06-19T06:26:43;21.70;99.90
35796;DHT22;21916;52.428;13.302;2023-06-19T06:29:12;21.80;99.90
35796;DHT22;21916;52.428;13.302;2023-06-19T06:31:38;21.90;99.90
35796;DHT22;21916;52.428;13.302;2023-06-19T06:34:05;21.90;99.90
35796;DHT22;21916;52.428;13.302;2023-06-19T06:36:32;22.00;99.90
35796;DHT22;21916;52.428;13.302;2023-06-19T06:38:58;22.00;99.90
35796;DHT22;21916;52.428;13.302;2023-06-19T06:41:24;22.10;99.90
35796;DHT22;21916;52.428;13.302;2023-06-19T06:43:50;22.20;99.90
35796;DHT22;21916;52.428;13.302;2023-06-19T06:46:16;22.40;99.90
35796;DHT22;21916;52.428;13.302;2023-06-19T06:48:42;22.40;99.90
35796;DHT22;21916;52.428;13.302;2023-06-19T06:51:08;22.50;99.90
35796;DHT22;21916;52.428;13.302;2023-06-19T06:53:37;22.60;99.90
35796;DHT22;21916;52.428;13.302;2023-06-19T06:56:03;22.70;99.90
35796;DHT22;21916;52.428;13.302;2023-06-19T06:58:30;22.90;99.90
35796;DHT22;21916;52.428;13.302;2023-06-19T07:00:56;22.90;99.90
35796;DHT22;21916;52.428;13.302;2023-06-19T07:03:22;23.00;99.90
35796;DHT22;21916;52.428;13.302;2023-06-19T07:05:48;23.00;99.90
35796;DHT22;21916;52.428;13.302;2023-06-19T07:08:14;23.20;99.90
35796;DHT22;21916;52.428;13.302;2023-06-19T07:10:40;23.30;99.90
35796;DHT22;21916;52.428;13.302;2023-06-19T07:13:06;23.50;99.90
35796;DHT22;21916;52.428;13.302;2023-06-19T07:15:33;23.60;99.90
35796;DHT22;21916;52.428;13.302;2023-06-19T07:18:00;23.60;99.90
35796;DHT22;21916;52.428;13.302;2023-06-19T07:20:26;23.80;99.90
35796;DHT22;21916;52.428;13.302;2023-06-19T07:22:52;23.90;99.90
35796;DHT22;21916;52.428;13.302;2023-06-19T07:25:19;24.00;99.90
35796;DHT22;21916;52.428;13.302;2023-06-19T07:27:45;24.10;99.90
35796;DHT22;21916;52.428;13.302;2023-06-19T07:30:11;24.20;99.90
35796;DHT22;21916;52.428;13.302;2023-06-19T07:32:38;24.30;99.90
35796;DHT22;21916;52.428;13.302;2023-06-19T07:35:04;24.30;99.90
35796;DHT22;21916;52.428;13.302;2023-06-19T07:37:30;24.40;99.90
35796;DHT22;21916;52.428;13.302;2023-06-19T07:39:56;24.30;99.90
35796;DHT22;21916;52.428;13.302;2023-06-19T07:42:22;24.00;99.90
35796;DHT22;21916;52.428;13.302;2023-06-19T07:44:51;23.90;99.90
35796;DHT22;21916;52.428;13.302;2023-06-19T07:47:17;23.90;99.90
35796;DHT22;21916;52.428;13.302;2023-06-19T07:49:44;23.70;99.90
35796;DHT22;21916;52.428;13.302;2023-06-19T07:52:11;23.80;99.90
35796;DHT22;21916;52.428;13.302;2023-06-19T07:54:48;24.10;99.90
35796;DHT22;21916;52.428;13.302;2023-06-19T07:57:14;24.50;99.90
35796;DHT22;21916;52.428;13.302;2023-06-19T07:59:40;24.80;99.90
35796;DHT22;21916;52.428;13.302;2023-06-19T08:02:06;24.80;99.90
35796;DHT22;21916;52.428;13.302;2023-06-19T08:04:31;25.00;99.90
35796;DHT22;21916;52.428;13.302;2023-06-19T08:06:57;25.10;99.90
35796;DHT22;21916;52.428;13.302;2023-06-19T08:09:23;25.10;99.90
35796;DHT22;21916;52.428;13.302;2023-06-19T08:11:49;25.30;99.90
35796;DHT22;21916;52.428;13.302;2023-06-19T08:14:15;25.40;99.90
35796;DHT22;21916;52.428;13.302;2023-06-19T08:16:41;25.50;99.90
35796;DHT22;21916;52.428;13.302;2023-06-19T08:19:07;25.50;99.90
35796;DHT22;21916;52.428;13.302;2023-06-19T08:21:33;25.50;99.90
35796;DHT22;21916;52.428;13.302;2023-06-19T08:23:59;25.40;99.90
35796;DHT22;21916;52.428;13.302;2023-06-19T08:26:25;25.20;99.90
35796;DHT22;21916;52.428;13.302;2023-06-19T08:28:51;25.00;99.90
35796;DHT22;21916;52.428;13.302;2023-06-19T08:31:17;24.90;99.90
35796;DHT22;21916;52.428;13.302;2023-06-19T08:33:43;24.90;99.90
35796;DHT22;21916;52.428;13.302;2023-06-19T08:36:09;24.90;99.90
35796;DHT22;21916;52.428;13.302;2023-06-19T08:38:35;24.80;99.90
35796;DHT22;21916;52.428;13.302;2023-06-19T08:41:01;24.90;99.90
35796;DHT22;21916;52.428;13.302;2023-06-19T08:43:27;25.10;99.90
35796;DHT22;21916;52.428;13.302;2023-06-19T08:46:09;25.30;99.90
35796;DHT22;21916;52.428;13.302;2023-06-19T08:48:36;25.50;99.90
35796;DHT22;21916;52.428;13.302;2023-06-19T08:51:03;25.70;99.90
35796;DHT22;21916;52.428;13.302;2023-06-19T08:53:33;25.70;99.90
35796;DHT22;21916;52.428;13.302;2023-06-19T08:56:00;25.70;99.90
35796;DHT22;21916;52.428;13.302;2023-06-19T08:58:26;25.70;99.90
35796;DHT22;21916;52.428;13.302;2023-06-19T09:00:53;25.70;99.90
35796;DHT22;21916;52.428;13.302;2023-06-19T09:03:20;25.40;99.90
35796;DHT22;21916;52.428;13.302;2023-06-19T09:05:47;25.40;99.90
35796;DHT22;21916;52.428;13.302;2023-06-19T09:08:19;25.30;99.90
35796;DHT22;21916;52.428;13.302;2023-06-19T09:10:56;25.40;99.90
35796;DHT22;21916;52.428;13.302;2023-06-19T09:13:22;25.60;99.90
35796;DHT22;21916;52.428;13.302;2023-06-19T09:15:56;25.70;99.90
35796;DHT22;21916;52.428;13.302;2023-06-19T09:18:23;25.90;99.90
35796;DHT22;21916;52.428;13.302;2023-06-19T09:20:52;26.00;99.90
35796;DHT22;21916;52.428;13.302;2023-06-19T09:23:19;26.00;99.90
35796;DHT22;21916;52.428;13.302;2023-06-19T09:25:50;25.80;99.80
35796;DHT22;21916;52.428;13.302;2023-06-19T09:28:24;25.60;99.90
35796;DHT22;21916;52.428;13.302;2023-06-19T09:31:01;25.30;99.90
35796;DHT22;21916;52.428;13.302;2023-06-19T09:33:30;25.30;99.90
35796;DHT22;21916;52.428;13.302;2023-06-19T09:35:58;25.20;99.90
35796;DHT22;21916;52.428;13.302;2023-06-19T09:38:26;25.20;99.90
35796;DHT22;21916;52.428;13.302;2023-06-19T09:40:53;25.20;99.90
35796;DHT22;21916;52.428;13.302;2023-06-19T09:43:25;25.10;99.90
35796;DHT22;21916;52.428;13.302;2023-06-19T09:45:55;25.10;99.90
35796;DHT22;21916;52.428;13.302;2023-06-19T09:48:28;25.30;99.90
35796;DHT22;21916;52.428;13.302;2023-06-19T09:51:00;25.50;99.90
35796;DHT22;21916;52.428;13.302;2023-06-19T09:53:26;25.90;99.90
35796;DHT22;21916;52.428;13.302;2023-06-19T09:55:53;26.10;99.90
35796;DHT22;21916;52.428;13.302;2023-06-19T09:58:20;26.30;99.90
35796;DHT22;21916;52.428;13.302;2023-06-19T10:00:47;26.40;99.90
35796;DHT22;21916;52.428;13.302;2023-06-19T10:03:16;26.50;99.90
35796;DHT22;21916;52.428;13.302;2023-06-19T10:05:43;26.60;99.90
35796;DHT22;21916;52.428;13.302;2023-06-19T10:08:10;26.60;99.90
35796;DHT22;21916;52.428;13.302;2023-06-19T10:10:36;26.60;99.90
35796;DHT22;21916;52.428;13.302;2023-06-19T10:13:15;26.70;99.90
35796;DHT22;21916;52.428;13.302;2023-06-19T10:15:43;26.80;99.90
35796;DHT22;21916;52.428;13.302;2023-06-19T10:18:16;26.90;99.90
35796;DHT22;21916;52.428;13.302;2023-06-19T10:20:44;27.10;99.60
35796;DHT22;21916;52.428;13.302;2023-06-19T10:23:19;27.10;99.90
35796;DHT22;21916;52.428;13.302;2023-06-19T10:25:48;27.10;99.70
35796;DHT22;21916;52.428;13.302;2023-06-19T10:28:31;27.30;99.60
35796;DHT22;21916;52.428;13.302;2023-06-19T10:31:08;27.60;99.50
35796;DHT22;21916;52.428;13.302;2023-06-19T10:33:36;27.90;98.40
35796;DHT22;21916;52.428;13.302;2023-06-19T10:36:19;28.20;98.00
35796;DHT22;21916;52.428;13.302;2023-06-19T10:38:46;28.40;97.80
35796;DHT22;21916;52.428;13.302;2023-06-19T10:41:22;28.80;97.60
35796;DHT22;21916;52.428;13.302;2023-06-19T10:44:07;29.00;96.40
35796;DHT22;21916;52.428;13.302;2023-06-19T10:46:39;29.00;96.40
35796;DHT22;21916;52.428;13.302;2023-06-19T10:49:07;29.10;96.70
35796;DHT22;21916;52.428;13.302;2023-06-19T10:51:37;29.30;96.10
35796;DHT22;21916;52.428;13.302;2023-06-19T10:54:04;29.30;95.90
35796;DHT22;21916;52.428;13.302;2023-06-19T10:56:30;29.40;95.80
35796;DHT22;21916;52.428;13.302;2023-06-19T10:59:01;29.40;95.10
35796;DHT22;21916;52.428;13.302;2023-06-19T11:01:38;28.90;95.20
35796;DHT22;21916;52.428;13.302;2023-06-19T11:04:06;28.80;95.40
35796;DHT22;21916;52.428;13.302;2023-06-19T11:06:33;28.60;95.10
35796;DHT22;21916;52.428;13.302;2023-06-19T11:08:59;28.40;95.20
35796;DHT22;21916;52.428;13.302;2023-06-19T11:14:02;27.90;95.50
35796;DHT22;21916;52.428;13.302;2023-06-19T11:16:28;28.00;95.90
35796;DHT22;21916;52.428;13.302;2023-06-19T11:18:58;28.00;95.50
35796;DHT22;21916;52.428;13.302;2023-06-19T11:21:31;28.20;95.20
35796;DHT22;21916;52.428;13.302;2023-06-19T11:24:03;28.10;94.50
35796;DHT22;21916;52.428;13.302;2023-06-19T11:26:29;27.90;95.30
35796;DHT22;21916;52.428;13.302;2023-06-19T11:28:55;27.80;95.90
35796;DHT22;21916;52.428;13.302;2023-06-19T11:31:27;27.90;95.70
35796;DHT22;21916;52.428;13.302;2023-06-19T11:33:58;28.30;95.70
35796;DHT22;21916;52.428;13.302;2023-06-19T11:36:24;28.50;95.30
35796;DHT22;21916;52.428;13.302;2023-06-19T11:38:53;28.60;95.10
35796;DHT22;21916;52.428;13.302;2023-06-19T11:41:27;28.40;94.80
35796;DHT22;21916;52.428;13.302;2023-06-19T11:44:03;28.40;95.20
35796;DHT22;21916;52.428;13.302;2023-06-19T11:46:31;28.50;95.00
35796;DHT22;21916;52.428;13.302;2023-06-19T11:49:17;28.60;94.70
35796;DHT22;21916;52.428;13.302;2023-06-19T11:51:47;28.90;94.50
35796;DHT22;21916;52.428;13.302;2023-06-19T11:54:14;28.90;94.80
35796;DHT22;21916;52.428;13.302;2023-06-19T11:56:41;29.30;94.70
35796;DHT22;21916;52.428;13.302;2023-06-19T11:59:07;29.50;93.70
35796;DHT22;21916;52.428;13.302;2023-06-19T12:01:34;29.70;94.20
35796;DHT22;21916;52.428;13.302;2023-06-19T12:04:01;29.90;93.10
35796;DHT22;21916;52.428;13.302;2023-06-19T12:06:28;29.80;93.30
35796;DHT22;21916;52.428;13.302;2023-06-19T12:08:54;29.90;92.60
35796;DHT22;21916;52.428;13.302;2023-06-19T12:11:20;30.30;91.40
35796;DHT22;21916;52.428;13.302;2023-06-19T12:13:46;30.20;92.50
35796;DHT22;21916;52.428;13.302;2023-06-19T12:16:13;30.30;91.60
35796;DHT22;21916;52.428;13.302;2023-06-19T12:18:39;30.40;91.50
35796;DHT22;21916;52.428;13.302;2023-06-19T12:21:05;30.90;91.70
35796;DHT22;21916;52.428;13.302;2023-06-19T12:23:31;32.40;89.90
35796;DHT22;21916;52.428;13.302;2023-06-19T12:25:57;33.60;84.90
35796;DHT22;21916;52.428;13.302;2023-06-19T12:28:23;32.80;85.80
35796;DHT22;21916;52.428;13.302;2023-06-19T12:30:49;33.10;84.40
35796;DHT22;21916;52.428;13.302;2023-06-19T12:33:19;33.70;84.00
35796;DHT22;21916;52.428;13.302;2023-06-19T12:35:47;35.30;81.90
35796;DHT22;21916;52.428;13.302;2023-06-19T12:38:13;36.60;79.40
35796;DHT22;21916;52.428;13.302;2023-06-19T12:40:40;36.10;75.80
35796;DHT22;21916;52.428;13.302;2023-06-19T12:43:07;35.50;76.90
35796;DHT22;21916;52.428;13.302;2023-06-19T12:45:33;35.40;77.70
35796;DHT22;21916;52.428;13.302;2023-06-19T12:47:59;35.20;77.70
35796;DHT22;21916;52.428;13.302;2023-06-19T12:50:25;35.70;77.30
35796;DHT22;21916;52.428;13.302;2023-06-19T12:52:51;36.50;76.30
35796;DHT22;21916;52.428;13.302;2023-06-19T12:55:17;36.60;76.30
35796;DHT22;21916;52.428;13.302;2023-06-19T12:57:43;37.00;75.10
35796;DHT22;21916;52.428;13.302;2023-06-19T13:00:12;36.90;73.00
35796;DHT22;21916;52.428;13.302;2023-06-19T13:02:39;38.00;73.50
35796;DHT22;21916;52.428;13.302;2023-06-19T13:05:09;38.80;70.90
35796;DHT22;21916;52.428;13.302;2023-06-19T13:07:35;38.40;70.10
35796;DHT22;21916;52.428;13.302;2023-06-19T13:10:01;38.00;69.10
35796;DHT22;21916;52.428;13.302;2023-06-19T13:12:26;37.00;69.30
35796;DHT22;21916;52.428;13.302;2023-06-19T13:14:53;36.40;70.50
35796;DHT22;21916;52.428;13.302;2023-06-19T13:17:19;36.30;70.80
35796;DHT22;21916;52.428;13.302;2023-06-19T13:19:45;35.90;70.70
35796;DHT22;21916;52.428;13.302;2023-06-19T13:22:11;35.70;72.40
35796;DHT22;21916;52.428;13.302;2023-06-19T13:24:38;36.10;71.20
35796;DHT22;21916;52.428;13.302;2023-06-19T13:27:04;36.30;71.90
35796;DHT22;21916;52.428;13.302;2023-06-19T13:29:30;36.90;72.60
35796;DHT22;21916;52.428;13.302;2023-06-19T13:31:56;36.60;71.00
35796;DHT22;21916;52.428;13.302;2023-06-19T13:34:22;36.90;71.00
35796;DHT22;21916;52.428;13.302;2023-06-19T13:36:53;38.00;70.90
35796;DHT22;21916;52.428;13.302;2023-06-19T13:39:19;39.20;68.60
35796;DHT22;21916;52.428;13.302;2023-06-19T13:41:46;39.00;66.90
35796;DHT22;21916;52.428;13.302;2023-06-19T13:44:12;38.60;66.20
35796;DHT22;21916;52.428;13.302;2023-06-19T13:46:38;38.60;66.70
35796;DHT22;21916;52.428;13.302;2023-06-19T13:49:04;38.30;66.80
35796;DHT22;21916;52.428;13.302;2023-06-19T13:51:30;38.20;66.50
35796;DHT22;21916;52.428;13.302;2023-06-19T13:53:57;36.90;67.50
35796;DHT22;21916;52.428;13.302;2023-06-19T13:56:29;36.40;68.00
35796;DHT22;21916;52.428;13.302;2023-06-19T13:58:55;36.50;68.70
35796;DHT22;21916;52.428;13.302;2023-06-19T14:01:22;36.90;68.20
35796;DHT22;21916;52.428;13.302;2023-06-19T14:03:48;37.70;67.40
35796;DHT22;21916;52.428;13.302;2023-06-19T14:06:14;37.80;66.50
35796;DHT22;21916;52.428;13.302;2023-06-19T14:08:39;36.80;67.30
35796;DHT22;21916;52.428;13.302;2023-06-19T14:11:05;37.00;68.30
35796;DHT22;21916;52.428;13.302;2023-06-19T14:13:32;36.60;67.00
35796;DHT22;21916;52.428;13.302;2023-06-19T14:15:58;35.50;68.50
35796;DHT22;21916;52.428;13.302;2023-06-19T14:18:24;35.30;68.50
35796;DHT22;21916;52.428;13.302;2023-06-19T14:20:50;35.50;69.60
35796;DHT22;21916;52.428;13.302;2023-06-19T14:23:16;35.70;70.20
35796;DHT22;21916;52.428;13.302;2023-06-19T14:25:42;35.70;69.60
35796;DHT22;21916;52.428;13.302;2023-06-19T14:28:08;36.20;69.60
35796;DHT22;21916;52.428;13.302;2023-06-19T14:30:33;36.30;68.70
35796;DHT22;21916;52.428;13.302;2023-06-19T14:32:59;36.10;68.50
35796;DHT22;21916;52.428;13.302;2023-06-19T14:35:25;35.40;68.40
35796;DHT22;21916;52.428;13.302;2023-06-19T14:37:52;35.00;68.70
35796;DHT22;21916;52.428;13.302;2023-06-19T14:40:17;35.20;69.20
35796;DHT22;21916;52.428;13.302;2023-06-19T14:42:43;35.40;68.70
35796;DHT22;21916;52.428;13.302;2023-06-19T14:45:09;36.20;68.40
35796;DHT22;21916;52.428;13.302;2023-06-19T14:47:35;37.10;68.20
35796;DHT22;21916;52.428;13.302;2023-06-19T14:50:02;37.70;65.10
35796;DHT22;21916;52.428;13.302;2023-06-19T14:52:28;37.90;61.50
35796;DHT22;21916;52.428;13.302;2023-06-19T14:54:54;38.00;63.00
35796;DHT22;21916;52.428;13.302;2023-06-19T14:57:21;37.10;62.40
35796;DHT22;21916;52.428;13.302;2023-06-19T14:59:47;36.80;63.10
35796;DHT22;21916;52.428;13.302;2023-06-19T15:02:13;37.30;63.80
35796;DHT22;21916;52.428;13.302;2023-06-19T15:04:39;37.70;63.10
35796;DHT22;21916;52.428;13.302;2023-06-19T15:07:05;36.80;63.40
35796;DHT22;21916;52.428;13.302;2023-06-19T15:09:31;36.60;63.90
35796;DHT22;21916;52.428;13.302;2023-06-19T15:11:57;37.10;64.20
35796;DHT22;21916;52.428;13.302;2023-06-19T15:14:23;37.10;63.20
35796;DHT22;21916;52.428;13.302;2023-06-19T15:16:48;36.70;62.30
35796;DHT22;21916;52.428;13.302;2023-06-19T15:19:14;36.20;61.80
35796;DHT22;21916;52.428;13.302;2023-06-19T15:21:41;35.70;63.10